sensor_id;sensor_type;location;lat;lon;timestamp;P1;durP1;ratioP1;P2;durP2;ratioP2
54197;SDS011;40105;52.366;17.000;2022-07-29T00:01:41;5.97;;;2.60;;
54197;SDS011;40105;52.366;17.000;2022-07-29T00:04:06;9.40;;;2.22;;
54197;SDS011;40105;52.366;17.000;2022-07-29T00:06:31;4.90;;;2.30;;
54197;SDS011;40105;52.366;17.000;2022-07-29T00:08:57;9.33;;;2.30;;
54197;SDS011;40105;52.366;17.000;2022-07-29T00:11:22;7.00;;;2.50;;
54197;SDS011;40105;52.366;17.000;2022-07-29T00:13:47;7.43;;;1.93;;
54197;SDS011;40105;52.366;17.000;2022-07-29T00:16:12;9.10;;;3.00;;
54197;SDS011;40105;52.366;17.000;2022-07-29T00:18:37;4.97;;;2.50;;
54197;SDS011;40105;52.366;17.000;2022-07-29T00:21:04;9.32;;;2.80;;
54197;SDS011;40105;52.366;17.000;2022-07-29T00:23:29;24.70;;;3.42;;
54197;SDS011;40105;52.366;17.000;2022-07-29T00:25:54;7.40;;;2.53;;
54197;SDS011;40105;52.366;17.000;2022-07-29T00:28:19;12.67;;;4.27;;
54197;SDS011;40105;52.366;17.000;2022-07-29T00:30:44;7.70;;;3.00;;
54197;SDS011;40105;52.366;17.000;2022-07-29T00:33:10;13.33;;;2.80;;
54197;SDS011;40105;52.366;17.000;2022-07-29T00:35:35;5.27;;;2.27;;
54197;SDS011;40105;52.366;17.000;2022-07-29T00:38:10;3.40;;;1.88;;
54197;SDS011;40105;52.366;17.000;2022-07-29T00:40:35;8.77;;;2.20;;
54197;SDS011;40105;52.366;17.000;2022-07-29T00:43:00;10.73;;;2.20;;
54197;SDS011;40105;52.366;17.000;2022-07-29T00:45:26;11.40;;;2.50;;
54197;SDS011;40105;52.366;17.000;2022-07-29T00:47:52;4.97;;;2.27;;
54197;SDS011;40105;52.366;17.000;2022-07-29T00:50:17;9.20;;;2.83;;
54197;SDS011;40105;52.366;17.000;2022-07-29T00:52:42;9.25;;;2.67;;
54197;SDS011;40105;52.366;17.000;2022-07-29T00:55:09;5.25;;;2.25;;
54197;SDS011;40105;52.366;17.000;2022-07-29T00:57:35;6.13;;;2.40;;
54197;SDS011;40105;52.366;17.000;2022-07-29T01:00:00;10.10;;;2.35;;
54197;SDS011;40105;52.366;17.000;2022-07-29T01:02:26;9.27;;;2.87;;
54197;SDS011;40105;52.366;17.000;2022-07-29T01:04:51;5.30;;;2.38;;
54197;SDS011;40105;52.366;17.000;2022-07-29T01:07:17;5.70;;;2.40;;
54197;SDS011;40105;52.366;17.000;2022-07-29T01:09:43;7.45;;;2.88;;
54197;SDS011;40105;52.366;17.000;2022-07-29T01:12:08;6.78;;;2.63;;
54197;SDS011;40105;52.366;17.000;2022-07-29T01:14:34;7.53;;;2.50;;
54197;SDS011;40105;52.366;17.000;2022-07-29T01:19:54;12.95;;;2.60;;
54197;SDS011;40105;52.366;17.000;2022-07-29T01:23:01;5.28;;;2.58;;
54197;SDS011;40105;52.366;17.000;2022-07-29T01:30:39;7.78;;;3.10;;
54197;SDS011;40105;52.366;17.000;2022-07-29T01:33:07;6.45;;;2.78;;
54197;SDS011;40105;52.366;17.000;2022-07-29T01:35:38;13.52;;;2.92;;
54197;SDS011;40105;52.366;17.000;2022-07-29T01:38:14;13.48;;;3.00;;
54197;SDS011;40105;52.366;17.000;2022-07-29T01:40:48;12.75;;;3.22;;
54197;SDS011;40105;52.366;17.000;2022-07-29T01:43:16;9.88;;;2.90;;
54197;SDS011;40105;52.366;17.000;2022-07-29T01:45:53;18.25;;;3.55;;
54197;SDS011;40105;52.366;17.000;2022-07-29T01:48:21;8.60;;;2.25;;
54197;SDS011;40105;52.366;17.000;2022-07-29T01:53:27;7.55;;;2.63;;
54197;SDS011;40105;52.366;17.000;2022-07-29T01:55:54;6.97;;;2.78;;
54197;SDS011;40105;52.366;17.000;2022-07-29T01:58:20;10.00;;;2.92;;
54197;SDS011;40105;52.366;17.000;2022-07-29T02:00:46;9.93;;;3.70;;
54197;SDS011;40105;52.366;17.000;2022-07-29T02:03:12;13.35;;;3.72;;
54197;SDS011;40105;52.366;17.000;2022-07-29T02:05:39;5.75;;;2.60;;
54197;SDS011;40105;52.366;17.000;2022-07-29T02:08:05;6.57;;;3.10;;
54197;SDS011;40105;52.366;17.000;2022-07-29T02:10:32;6.85;;;2.90;;
54197;SDS011;40105;52.366;17.000;2022-07-29T02:12:58;8.25;;;3.10;;
54197;SDS011;40105;52.366;17.000;2022-07-29T02:15:24;5.65;;;2.50;;
54197;SDS011;40105;52.366;17.000;2022-07-29T02:17:58;9.95;;;3.38;;
54197;SDS011;40105;52.366;17.000;2022-07-29T02:20:25;14.85;;;3.05;;
54197;SDS011;40105;52.366;17.000;2022-07-29T02:22:50;11.20;;;3.05;;
54197;SDS011;40105;52.366;17.000;2022-07-29T02:25:16;8.23;;;2.80;;
54197;SDS011;40105;52.366;17.000;2022-07-29T02:27:42;8.25;;;2.45;;
54197;SDS011;40105;52.366;17.000;2022-07-29T02:30:08;9.95;;;2.95;;
54197;SDS011;40105;52.366;17.000;2022-07-29T02:32:35;10.73;;;2.92;;
54197;SDS011;40105;52.366;17.000;2022-07-29T02:35:02;7.50;;;3.10;;
54197;SDS011;40105;52.366;17.000;2022-07-29T02:37:28;8.52;;;2.55;;
54197;SDS011;40105;52.366;17.000;2022-07-29T02:39:54;8.13;;;3.25;;
54197;SDS011;40105;52.366;17.000;2022-07-29T02:42:20;11.43;;;2.65;;
54197;SDS011;40105;52.366;17.000;2022-07-29T02:44:46;6.53;;;3.10;;
54197;SDS011;40105;52.366;17.000;2022-07-29T02:47:30;11.00;;;2.73;;
54197;SDS011;40105;52.366;17.000;2022-07-29T02:52:44;15.97;;;3.10;;
54197;SDS011;40105;52.366;17.000;2022-07-29T02:55:15;5.78;;;2.72;;
54197;SDS011;40105;52.366;17.000;2022-07-29T02:57:43;12.45;;;4.38;;
54197;SDS011;40105;52.366;17.000;2022-07-29T03:00:09;12.27;;;2.92;;
54197;SDS011;40105;52.366;17.000;2022-07-29T03:02:36;7.07;;;2.90;;
54197;SDS011;40105;52.366;17.000;2022-07-29T03:05:03;6.47;;;2.55;;
54197;SDS011;40105;52.366;17.000;2022-07-29T03:07:29;7.50;;;3.08;;
54197;SDS011;40105;52.366;17.000;2022-07-29T03:09:54;8.40;;;2.63;;
54197;SDS011;40105;52.366;17.000;2022-07-29T03:12:20;5.32;;;2.78;;
54197;SDS011;40105;52.366;17.000;2022-07-29T03:14:45;4.88;;;2.50;;
54197;SDS011;40105;52.366;17.000;2022-07-29T03:17:11;6.28;;;2.25;;
54197;SDS011;40105;52.366;17.000;2022-07-29T03:19:37;10.43;;;2.45;;
54197;SDS011;40105;52.366;17.000;2022-07-29T03:22:02;5.93;;;2.53;;
54197;SDS011;40105;52.366;17.000;2022-07-29T03:24:31;6.35;;;2.50;;
54197;SDS011;40105;52.366;17.000;2022-07-29T03:26:56;10.85;;;3.08;;
54197;SDS011;40105;52.366;17.000;2022-07-29T03:29:22;7.80;;;3.03;;
54197;SDS011;40105;52.366;17.000;2022-07-29T03:31:48;5.45;;;2.50;;
54197;SDS011;40105;52.366;17.000;2022-07-29T03:34:13;10.13;;;2.63;;
54197;SDS011;40105;52.366;17.000;2022-07-29T03:36:38;8.97;;;3.40;;
54197;SDS011;40105;52.366;17.000;2022-07-29T03:39:03;7.83;;;2.87;;
54197;SDS011;40105;52.366;17.000;2022-07-29T03:41:29;6.07;;;2.72;;
54197;SDS011;40105;52.366;17.000;2022-07-29T03:43:55;12.55;;;2.78;;
54197;SDS011;40105;52.366;17.000;2022-07-29T03:46:21;20.30;;;3.25;;
54197;SDS011;40105;52.366;17.000;2022-07-29T03:48:48;3.90;;;2.28;;
54197;SDS011;40105;52.366;17.000;2022-07-29T03:51:15;12.80;;;2.65;;
54197;SDS011;40105;52.366;17.000;2022-07-29T03:53:40;6.87;;;2.63;;
54197;SDS011;40105;52.366;17.000;2022-07-29T03:56:05;7.30;;;2.73;;
54197;SDS011;40105;52.366;17.000;2022-07-29T03:58:31;4.75;;;2.45;;
54197;SDS011;40105;52.366;17.000;2022-07-29T04:00:57;7.15;;;2.65;;
54197;SDS011;40105;52.366;17.000;2022-07-29T04:03:23;7.65;;;2.88;;
54197;SDS011;40105;52.366;17.000;2022-07-29T04:05:58;6.87;;;2.40;;
54197;SDS011;40105;52.366;17.000;2022-07-29T04:08:24;6.40;;;2.50;;
54197;SDS011;40105;52.366;17.000;2022-07-29T04:10:49;8.90;;;2.63;;
54197;SDS011;40105;52.366;17.000;2022-07-29T04:13:14;7.00;;;1.95;;
54197;SDS011;40105;52.366;17.000;2022-07-29T04:15:40;6.53;;;2.47;;
54197;SDS011;40105;52.366;17.000;2022-07-29T04:18:05;6.97;;;2.10;;
54197;SDS011;40105;52.366;17.000;2022-07-29T04:20:30;10.90;;;2.28;;
54197;SDS011;40105;52.366;17.000;2022-07-29T04:22:56;6.17;;;2.03;;
54197;SDS011;40105;52.366;17.000;2022-07-29T04:25:21;4.27;;;2.40;;
54197;SDS011;40105;52.366;17.000;2022-07-29T04:27:46;4.33;;;2.30;;
54197;SDS011;40105;52.366;17.000;2022-07-29T04:30:26;9.85;;;2.47;;
54197;SDS011;40105;52.366;17.000;2022-07-29T04:32:52;10.75;;;2.40;;
54197;SDS011;40105;52.366;17.000;2022-07-29T04:35:17;5.00;;;1.83;;
54197;SDS011;40105;52.366;17.000;2022-07-29T04:37:43;6.93;;;2.13;;
54197;SDS011;40105;52.366;17.000;2022-07-29T04:40:08;12.68;;;2.35;;
54197;SDS011;40105;52.366;17.000;2022-07-29T04:42:33;6.53;;;1.95;;
54197;SDS011;40105;52.366;17.000;2022-07-29T04:44:58;11.07;;;2.33;;
54197;SDS011;40105;52.366;17.000;2022-07-29T04:47:24;5.90;;;2.80;;
54197;SDS011;40105;52.366;17.000;2022-07-29T04:49:49;5.43;;;2.33;;
54197;SDS011;40105;52.366;17.000;2022-07-29T04:52:14;9.73;;;1.90;;
54197;SDS011;40105;52.366;17.000;2022-07-29T04:54:39;6.27;;;2.10;;
54197;SDS011;40105;52.366;17.000;2022-07-29T04:57:05;6.40;;;2.30;;
54197;SDS011;40105;52.366;17.000;2022-07-29T04:59:30;5.30;;;1.80;;
54197;SDS011;40105;52.366;17.000;2022-07-29T05:01:55;7.23;;;2.10;;
54197;SDS011;40105;52.366;17.000;2022-07-29T05:04:20;8.20;;;2.10;;
54197;SDS011;40105;52.366;17.000;2022-07-29T05:06:45;5.80;;;2.10;;
54197;SDS011;40105;52.366;17.000;2022-07-29T05:09:10;7.17;;;2.00;;
54197;SDS011;40105;52.366;17.000;2022-07-29T05:11:36;5.77;;;2.07;;
54197;SDS011;40105;52.366;17.000;2022-07-29T05:14:01;7.37;;;2.00;;
54197;SDS011;40105;52.366;17.000;2022-07-29T05:16:26;7.43;;;2.00;;
54197;SDS011;40105;52.366;17.000;2022-07-29T05:18:51;5.70;;;1.70;;
54197;SDS011;40105;52.366;17.000;2022-07-29T05:21:16;5.30;;;1.83;;
54197;SDS011;40105;52.366;17.000;2022-07-29T05:23:42;9.90;;;2.97;;
54197;SDS011;40105;52.366;17.000;2022-07-29T05:26:07;12.87;;;1.90;;
54197;SDS011;40105;52.366;17.000;2022-07-29T05:28:35;5.50;;;1.42;;
54197;SDS011;40105;52.366;17.000;2022-07-29T05:31:00;9.43;;;1.67;;
54197;SDS011;40105;52.366;17.000;2022-07-29T05:33:25;3.37;;;1.43;;
54197;SDS011;40105;52.366;17.000;2022-07-29T05:35:50;5.17;;;1.77;;
54197;SDS011;40105;52.366;17.000;2022-07-29T05:38:16;2.43;;;1.30;;
54197;SDS011;40105;52.366;17.000;2022-07-29T05:40:41;2.73;;;1.40;;
54197;SDS011;40105;52.366;17.000;2022-07-29T05:43:06;4.13;;;2.03;;
54197;SDS011;40105;52.366;17.000;2022-07-29T05:45:31;7.07;;;1.90;;
54197;SDS011;40105;52.366;17.000;2022-07-29T05:47:57;4.23;;;1.37;;
54197;SDS011;40105;52.366;17.000;2022-07-29T05:50:22;4.80;;;1.57;;
54197;SDS011;40105;52.366;17.000;2022-07-29T05:52:47;4.00;;;1.70;;
54197;SDS011;40105;52.366;17.000;2022-07-29T05:55:12;6.27;;;1.33;;
54197;SDS011;40105;52.366;17.000;2022-07-29T05:57:37;7.00;;;2.23;;
54197;SDS011;40105;52.366;17.000;2022-07-29T06:00:03;11.03;;;1.93;;
54197;SDS011;40105;52.366;17.000;2022-07-29T06:02:28;5.80;;;1.98;;
54197;SDS011;40105;52.366;17.000;2022-07-29T06:04:53;4.07;;;1.77;;
54197;SDS011;40105;52.366;17.000;2022-07-29T06:07:18;5.07;;;1.70;;
54197;SDS011;40105;52.366;17.000;2022-07-29T06:09:44;8.90;;;2.70;;
54197;SDS011;40105;52.366;17.000;2022-07-29T06:12:09;6.97;;;1.83;;
54197;SDS011;40105;52.366;17.000;2022-07-29T06:14:34;2.30;;;1.27;;
54197;SDS011;40105;52.366;17.000;2022-07-29T06:17:00;4.53;;;1.38;;
54197;SDS011;40105;52.366;17.000;2022-07-29T06:19:25;3.13;;;1.20;;
54197;SDS011;40105;52.366;17.000;2022-07-29T06:21:50;8.05;;;3.90;;
54197;SDS011;40105;52.366;17.000;2022-07-29T06:24:16;6.77;;;1.60;;
54197;SDS011;40105;52.366;17.000;2022-07-29T06:26:41;3.92;;;1.73;;
54197;SDS011;40105;52.366;17.000;2022-07-29T06:29:07;2.53;;;1.50;;
54197;SDS011;40105;52.366;17.000;2022-07-29T06:31:32;3.17;;;1.20;;
54197;SDS011;40105;52.366;17.000;2022-07-29T06:33:57;6.93;;;1.30;;
54197;SDS011;40105;52.366;17.000;2022-07-29T06:36:23;11.03;;;1.67;;
54197;SDS011;40105;52.366;17.000;2022-07-29T06:38:48;3.37;;;1.20;;
54197;SDS011;40105;52.366;17.000;2022-07-29T06:41:13;9.85;;;1.50;;
54197;SDS011;40105;52.366;17.000;2022-07-29T06:43:40;3.28;;;0.98;;
54197;SDS011;40105;52.366;17.000;2022-07-29T06:46:10;6.10;;;1.33;;
54197;SDS011;40105;52.366;17.000;2022-07-29T06:48:35;3.28;;;1.33;;
54197;SDS011;40105;52.366;17.000;2022-07-29T06:51:04;1.83;;;0.90;;
54197;SDS011;40105;52.366;17.000;2022-07-29T06:53:30;3.10;;;1.17;;
54197;SDS011;40105;52.366;17.000;2022-07-29T06:55:55;7.35;;;1.00;;
54197;SDS011;40105;52.366;17.000;2022-07-29T06:58:20;7.25;;;1.38;;
54197;SDS011;40105;52.366;17.000;2022-07-29T07:00:46;2.47;;;1.03;;
54197;SDS011;40105;52.366;17.000;2022-07-29T07:03:11;3.28;;;1.08;;
54197;SDS011;40105;52.366;17.000;2022-07-29T07:05:36;2.70;;;1.13;;
54197;SDS011;40105;52.366;17.000;2022-07-29T07:08:02;6.33;;;1.57;;
54197;SDS011;40105;52.366;17.000;2022-07-29T07:10:27;11.85;;;1.50;;
54197;SDS011;40105;52.366;17.000;2022-07-29T07:12:52;3.63;;;1.20;;
54197;SDS011;40105;52.366;17.000;2022-07-29T07:15:17;5.30;;;1.27;;
54197;SDS011;40105;52.366;17.000;2022-07-29T07:17:46;2.22;;;1.27;;
54197;SDS011;40105;52.366;17.000;2022-07-29T07:20:11;6.23;;;1.10;;
54197;SDS011;40105;52.366;17.000;2022-07-29T07:22:37;6.27;;;1.43;;
54197;SDS011;40105;52.366;17.000;2022-07-29T07:25:02;6.03;;;1.17;;
54197;SDS011;40105;52.366;17.000;2022-07-29T07:27:27;5.00;;;1.60;;
54197;SDS011;40105;52.366;17.000;2022-07-29T07:29:53;5.43;;;1.38;;
54197;SDS011;40105;52.366;17.000;2022-07-29T07:32:18;2.57;;;1.23;;
54197;SDS011;40105;52.366;17.000;2022-07-29T07:34:44;3.30;;;1.20;;
54197;SDS011;40105;52.366;17.000;2022-07-29T07:37:09;7.00;;;1.57;;
54197;SDS011;40105;52.366;17.000;2022-07-29T07:39:34;7.47;;;0.83;;
54197;SDS011;40105;52.366;17.000;2022-07-29T07:42:00;5.20;;;1.45;;
54197;SDS011;40105;52.366;17.000;2022-07-29T07:44:25;3.63;;;1.43;;
54197;SDS011;40105;52.366;17.000;2022-07-29T07:46:51;2.87;;;1.17;;
54197;SDS011;40105;52.366;17.000;2022-07-29T07:49:16;2.73;;;1.20;;
54197;SDS011;40105;52.366;17.000;2022-07-29T07:51:41;3.90;;;1.00;;
54197;SDS011;40105;52.366;17.000;2022-07-29T07:54:06;5.07;;;1.10;;
54197;SDS011;40105;52.366;17.000;2022-07-29T07:56:32;5.03;;;1.08;;
54197;SDS011;40105;52.366;17.000;2022-07-29T07:58:57;4.03;;;1.17;;
54197;SDS011;40105;52.366;17.000;2022-07-29T08:01:22;7.47;;;1.67;;
54197;SDS011;40105;52.366;17.000;2022-07-29T08:03:48;4.32;;;1.02;;
54197;SDS011;40105;52.366;17.000;2022-07-29T08:06:14;1.45;;;0.80;;
54197;SDS011;40105;52.366;17.000;2022-07-29T08:08:39;4.03;;;0.93;;
54197;SDS011;40105;52.366;17.000;2022-07-29T08:11:04;2.00;;;0.93;;
54197;SDS011;40105;52.366;17.000;2022-07-29T08:13:30;2.90;;;1.00;;
54197;SDS011;40105;52.366;17.000;2022-07-29T08:15:56;2.60;;;0.90;;
54197;SDS011;40105;52.366;17.000;2022-07-29T08:18:27;1.92;;;0.90;;
54197;SDS011;40105;52.366;17.000;2022-07-29T08:20:52;4.72;;;1.08;;
54197;SDS011;40105;52.366;17.000;2022-07-29T08:23:17;3.57;;;0.97;;
54197;SDS011;40105;52.366;17.000;2022-07-29T08:25:44;9.10;;;1.00;;
54197;SDS011;40105;52.366;17.000;2022-07-29T08:28:09;2.43;;;0.97;;
54197;SDS011;40105;52.366;17.000;2022-07-29T08:30:34;4.07;;;1.10;;
54197;SDS011;40105;52.366;17.000;2022-07-29T08:32:59;7.13;;;1.50;;
54197;SDS011;40105;52.366;17.000;2022-07-29T08:35:24;5.17;;;1.20;;
54197;SDS011;40105;52.366;17.000;2022-07-29T08:37:50;3.83;;;1.05;;
54197;SDS011;40105;52.366;17.000;2022-07-29T08:40:16;2.33;;;1.08;;
54197;SDS011;40105;52.366;17.000;2022-07-29T08:42:41;2.97;;;1.02;;
54197;SDS011;40105;52.366;17.000;2022-07-29T08:45:07;3.25;;;0.80;;
54197;SDS011;40105;52.366;17.000;2022-07-29T08:47:32;3.80;;;1.08;;
54197;SDS011;40105;52.366;17.000;2022-07-29T08:49:57;5.60;;;1.38;;
54197;SDS011;40105;52.366;17.000;2022-07-29T08:52:24;8.43;;;1.00;;
54197;SDS011;40105;52.366;17.000;2022-07-29T08:54:50;4.25;;;1.00;;
54197;SDS011;40105;52.366;17.000;2022-07-29T08:57:16;7.40;;;1.30;;
54197;SDS011;40105;52.366;17.000;2022-07-29T08:59:42;6.82;;;1.08;;
54197;SDS011;40105;52.366;17.000;2022-07-29T09:02:09;3.17;;;0.80;;
54197;SDS011;40105;52.366;17.000;2022-07-29T09:04:37;5.53;;;0.95;;
54197;SDS011;40105;52.366;17.000;2022-07-29T09:07:03;5.82;;;1.20;;
54197;SDS011;40105;52.366;17.000;2022-07-29T09:09:29;3.65;;;1.02;;
54197;SDS011;40105;52.366;17.000;2022-07-29T09:11:54;1.27;;;0.90;;
54197;SDS011;40105;52.366;17.000;2022-07-29T09:14:19;9.50;;;1.40;;
54197;SDS011;40105;52.366;17.000;2022-07-29T09:16:49;2.67;;;0.80;;
54197;SDS011;40105;52.366;17.000;2022-07-29T09:19:24;3.83;;;1.27;;
54197;SDS011;40105;52.366;17.000;2022-07-29T09:21:49;2.88;;;0.88;;
54197;SDS011;40105;52.366;17.000;2022-07-29T09:24:25;6.70;;;1.30;;
54197;SDS011;40105;52.366;17.000;2022-07-29T09:26:50;5.13;;;1.13;;
54197;SDS011;40105;52.366;17.000;2022-07-29T09:31:42;3.20;;;1.00;;
54197;SDS011;40105;52.366;17.000;2022-07-29T09:34:07;2.95;;;1.00;;
54197;SDS011;40105;52.366;17.000;2022-07-29T09:39:05;5.70;;;0.98;;
54197;SDS011;40105;52.366;17.000;2022-07-29T09:41:30;5.73;;;0.87;;
54197;SDS011;40105;52.366;17.000;2022-07-29T09:44:08;1.80;;;1.08;;
54197;SDS011;40105;52.366;17.000;2022-07-29T09:46:33;1.97;;;1.00;;
54197;SDS011;40105;52.366;17.000;2022-07-29T09:49:05;6.57;;;1.00;;
54197;SDS011;40105;52.366;17.000;2022-07-29T09:51:30;3.47;;;1.10;;
54197;SDS011;40105;52.366;17.000;2022-07-29T09:53:56;1.57;;;0.73;;
54197;SDS011;40105;52.366;17.000;2022-07-29T09:56:37;14.77;;;1.50;;
54197;SDS011;40105;52.366;17.000;2022-07-29T09:59:05;4.32;;;1.13;;
54197;SDS011;40105;52.366;17.000;2022-07-29T10:01:31;4.22;;;0.80;;
54197;SDS011;40105;52.366;17.000;2022-07-29T10:03:56;2.60;;;0.87;;
54197;SDS011;40105;52.366;17.000;2022-07-29T10:06:21;2.00;;;0.90;;
54197;SDS011;40105;52.366;17.000;2022-07-29T10:08:47;14.30;;;2.30;;
54197;SDS011;40105;52.366;17.000;2022-07-29T10:11:13;2.23;;;1.10;;
54197;SDS011;40105;52.366;17.000;2022-07-29T10:13:38;4.32;;;0.95;;
54197;SDS011;40105;52.366;17.000;2022-07-29T10:16:03;4.47;;;0.90;;
54197;SDS011;40105;52.366;17.000;2022-07-29T10:18:29;10.18;;;1.10;;
54197;SDS011;40105;52.366;17.000;2022-07-29T10:20:54;2.33;;;0.90;;
54197;SDS011;40105;52.366;17.000;2022-07-29T10:23:20;7.68;;;1.27;;
54197;SDS011;40105;52.366;17.000;2022-07-29T10:25:45;2.53;;;1.13;;
54197;SDS011;40105;52.366;17.000;2022-07-29T10:28:11;4.00;;;1.40;;
54197;SDS011;40105;52.366;17.000;2022-07-29T10:30:36;4.67;;;1.23;;
54197;SDS011;40105;52.366;17.000;2022-07-29T10:41:10;3.45;;;1.55;;
54197;SDS011;40105;52.366;17.000;2022-07-29T10:43:56;5.72;;;1.10;;
54197;SDS011;40105;52.366;17.000;2022-07-29T10:49:04;2.83;;;0.82;;
54197;SDS011;40105;52.366;17.000;2022-07-29T10:59:38;4.20;;;1.30;;
54197;SDS011;40105;52.366;17.000;2022-07-29T11:02:09;4.22;;;1.00;;
54197;SDS011;40105;52.366;17.000;2022-07-29T11:07:13;3.83;;;1.10;;
54197;SDS011;40105;52.366;17.000;2022-07-29T11:09:41;1.73;;;0.80;;
54197;SDS011;40105;52.366;17.000;2022-07-29T11:14:59;3.97;;;0.98;;
54197;SDS011;40105;52.366;17.000;2022-07-29T11:17:26;4.03;;;1.10;;
54197;SDS011;40105;52.366;17.000;2022-07-29T11:19:51;5.87;;;1.10;;
54197;SDS011;40105;52.366;17.000;2022-07-29T11:22:32;2.93;;;1.00;;
54197;SDS011;40105;52.366;17.000;2022-07-29T11:25:14;7.47;;;0.77;;
54197;SDS011;40105;52.366;17.000;2022-07-29T11:27:40;5.85;;;1.17;;
54197;SDS011;40105;52.366;17.000;2022-07-29T11:30:05;5.47;;;1.03;;
54197;SDS011;40105;52.366;17.000;2022-07-29T11:32:43;6.07;;;1.38;;
54197;SDS011;40105;52.366;17.000;2022-07-29T11:37:37;3.65;;;1.20;;
54197;SDS011;40105;52.366;17.000;2022-07-29T11:45:00;4.93;;;1.38;;
54197;SDS011;40105;52.366;17.000;2022-07-29T11:47:26;2.88;;;1.20;;
54197;SDS011;40105;52.366;17.000;2022-07-29T11:49:52;5.40;;;2.00;;
54197;SDS011;40105;52.366;17.000;2022-07-29T11:52:18;5.25;;;1.40;;
54197;SDS011;40105;52.366;17.000;2022-07-29T11:54:44;3.50;;;1.33;;
54197;SDS011;40105;52.366;17.000;2022-07-29T11:57:09;1.98;;;0.82;;
54197;SDS011;40105;52.366;17.000;2022-07-29T11:59:41;5.30;;;1.30;;
54197;SDS011;40105;52.366;17.000;2022-07-29T12:02:07;4.32;;;1.45;;
54197;SDS011;40105;52.366;17.000;2022-07-29T12:04:33;2.33;;;1.27;;
54197;SDS011;40105;52.366;17.000;2022-07-29T12:06:58;8.90;;;1.30;;
54197;SDS011;40105;52.366;17.000;2022-07-29T12:09:24;4.10;;;1.25;;
54197;SDS011;40105;52.366;17.000;2022-07-29T12:11:55;4.20;;;1.30;;
54197;SDS011;40105;52.366;17.000;2022-07-29T12:14:24;3.17;;;1.00;;
54197;SDS011;40105;52.366;17.000;2022-07-29T12:16:50;4.50;;;1.35;;
54197;SDS011;40105;52.366;17.000;2022-07-29T12:19:15;7.97;;;1.30;;
54197;SDS011;40105;52.366;17.000;2022-07-29T12:21:50;3.92;;;1.20;;
54197;SDS011;40105;52.366;17.000;2022-07-29T12:24:15;1.75;;;0.98;;
54197;SDS011;40105;52.366;17.000;2022-07-29T12:26:54;2.90;;;1.10;;
54197;SDS011;40105;52.366;17.000;2022-07-29T12:29:20;9.30;;;1.10;;
54197;SDS011;40105;52.366;17.000;2022-07-29T12:31:46;16.98;;;1.20;;
54197;SDS011;40105;52.366;17.000;2022-07-29T12:34:18;2.90;;;1.20;;
54197;SDS011;40105;52.366;17.000;2022-07-29T12:36:44;4.00;;;1.10;;
54197;SDS011;40105;52.366;17.000;2022-07-29T12:39:10;2.87;;;1.00;;
54197;SDS011;40105;52.366;17.000;2022-07-29T12:41:36;3.38;;;0.80;;
54197;SDS011;40105;52.366;17.000;2022-07-29T12:44:02;5.20;;;1.17;;
54197;SDS011;40105;52.366;17.000;2022-07-29T12:46:27;1.77;;;1.00;;
54197;SDS011;40105;52.366;17.000;2022-07-29T12:48:53;3.53;;;1.20;;
54197;SDS011;40105;52.366;17.000;2022-07-29T12:51:32;2.53;;;0.90;;
54197;SDS011;40105;52.366;17.000;2022-07-29T12:54:10;3.42;;;1.17;;
54197;SDS011;40105;52.366;17.000;2022-07-29T12:56:39;3.15;;;1.15;;
54197;SDS011;40105;52.366;17.000;2022-07-29T12:59:11;7.00;;;1.20;;
54197;SDS011;40105;52.366;17.000;2022-07-29T13:01:37;1.67;;;0.73;;
54197;SDS011;40105;52.366;17.000;2022-07-29T13:04:03;3.97;;;1.10;;
54197;SDS011;40105;52.366;17.000;2022-07-29T13:09:37;4.13;;;1.23;;
54197;SDS011;40105;52.366;17.000;2022-07-29T13:11:47;8.18;;;1.42;;
54197;SDS011;40105;52.366;17.000;2022-07-29T13:14:13;4.53;;;1.15;;
54197;SDS011;40105;52.366;17.000;2022-07-29T13:19:38;6.15;;;1.05;;
54197;SDS011;40105;52.366;17.000;2022-07-29T13:22:05;3.83;;;1.27;;
54197;SDS011;40105;52.366;17.000;2022-07-29T13:24:30;1.50;;;0.90;;
54197;SDS011;40105;52.366;17.000;2022-07-29T13:26:56;9.00;;;1.43;;
54197;SDS011;40105;52.366;17.000;2022-07-29T13:29:21;2.40;;;1.10;;
54197;SDS011;40105;52.366;17.000;2022-07-29T13:31:46;15.77;;;1.37;;
54197;SDS011;40105;52.366;17.000;2022-07-29T13:34:11;3.67;;;1.10;;
54197;SDS011;40105;52.366;17.000;2022-07-29T13:36:36;6.87;;;1.10;;
54197;SDS011;40105;52.366;17.000;2022-07-29T13:39:02;2.90;;;1.10;;
54197;SDS011;40105;52.366;17.000;2022-07-29T13:41:28;3.88;;;1.20;;
54197;SDS011;40105;52.366;17.000;2022-07-29T13:43:53;1.87;;;1.10;;
54197;SDS011;40105;52.366;17.000;2022-07-29T13:46:18;6.33;;;1.03;;
54197;SDS011;40105;52.366;17.000;2022-07-29T13:48:43;3.17;;;1.20;;
54197;SDS011;40105;52.366;17.000;2022-07-29T13:51:08;7.00;;;1.20;;
54197;SDS011;40105;52.366;17.000;2022-07-29T13:53:34;2.97;;;1.10;;
54197;SDS011;40105;52.366;17.000;2022-07-29T13:55:59;3.27;;;1.30;;
54197;SDS011;40105;52.366;17.000;2022-07-29T13:58:24;6.47;;;1.20;;
54197;SDS011;40105;52.366;17.000;2022-07-29T14:00:50;3.10;;;1.37;;
54197;SDS011;40105;52.366;17.000;2022-07-29T14:03:15;8.00;;;1.47;;
54197;SDS011;40105;52.366;17.000;2022-07-29T14:05:40;6.40;;;0.93;;
54197;SDS011;40105;52.366;17.000;2022-07-29T14:08:05;3.43;;;1.07;;
54197;SDS011;40105;52.366;17.000;2022-07-29T14:10:31;3.83;;;1.13;;
54197;SDS011;40105;52.366;17.000;2022-07-29T14:12:56;5.60;;;0.97;;
54197;SDS011;40105;52.366;17.000;2022-07-29T14:15:21;2.23;;;1.00;;
54197;SDS011;40105;52.366;17.000;2022-07-29T14:17:46;7.03;;;1.05;;
54197;SDS011;40105;52.366;17.000;2022-07-29T14:20:11;4.33;;;0.93;;
54197;SDS011;40105;52.366;17.000;2022-07-29T14:22:37;8.77;;;2.10;;
54197;SDS011;40105;52.366;17.000;2022-07-29T14:25:02;3.38;;;0.95;;
54197;SDS011;40105;52.366;17.000;2022-07-29T14:27:27;3.23;;;1.17;;
54197;SDS011;40105;52.366;17.000;2022-07-29T14:29:52;3.63;;;1.00;;
54197;SDS011;40105;52.366;17.000;2022-07-29T14:32:18;3.07;;;1.10;;
54197;SDS011;40105;52.366;17.000;2022-07-29T14:34:43;9.40;;;1.10;;
54197;SDS011;40105;52.366;17.000;2022-07-29T14:37:08;7.30;;;1.70;;
54197;SDS011;40105;52.366;17.000;2022-07-29T14:39:34;1.77;;;0.73;;
54197;SDS011;40105;52.366;17.000;2022-07-29T14:42:00;1.40;;;0.85;;
54197;SDS011;40105;52.366;17.000;2022-07-29T14:44:25;6.17;;;1.10;;
54197;SDS011;40105;52.366;17.000;2022-07-29T14:46:55;3.47;;;1.38;;
54197;SDS011;40105;52.366;17.000;2022-07-29T14:49:20;2.77;;;1.23;;
54197;SDS011;40105;52.366;17.000;2022-07-29T14:51:46;8.03;;;0.90;;
54197;SDS011;40105;52.366;17.000;2022-07-29T14:54:11;11.00;;;1.13;;
54197;SDS011;40105;52.366;17.000;2022-07-29T14:56:36;6.97;;;1.00;;
54197;SDS011;40105;52.366;17.000;2022-07-29T14:59:01;4.77;;;0.93;;
54197;SDS011;40105;52.366;17.000;2022-07-29T15:01:26;1.90;;;1.03;;
54197;SDS011;40105;52.366;17.000;2022-07-29T15:03:51;5.63;;;1.33;;
54197;SDS011;40105;52.366;17.000;2022-07-29T15:06:17;7.03;;;1.70;;
54197;SDS011;40105;52.366;17.000;2022-07-29T15:08:42;2.80;;;0.97;;
54197;SDS011;40105;52.366;17.000;2022-07-29T15:11:07;2.43;;;1.27;;
54197;SDS011;40105;52.366;17.000;2022-07-29T15:13:33;7.38;;;1.65;;
54197;SDS011;40105;52.366;17.000;2022-07-29T15:15:58;2.28;;;1.23;;
54197;SDS011;40105;52.366;17.000;2022-07-29T15:18:23;2.40;;;1.00;;
54197;SDS011;40105;52.366;17.000;2022-07-29T15:20:48;2.33;;;1.00;;
54197;SDS011;40105;52.366;17.000;2022-07-29T15:23:13;7.93;;;0.73;;
54197;SDS011;40105;52.366;17.000;2022-07-29T15:25:38;9.90;;;1.67;;